sensor_id;sensor_type;location;lat;lon;timestamp;temperature;humidity
43099;DHT22;28715;51.988;6.020;2022-07-17T00:00:36;15.70;87.60
43099;DHT22;28715;51.988;6.020;2022-07-17T00:03:01;15.70;87.90
43099;DHT22;28715;51.988;6.020;2022-07-17T00:05:27;15.70;88.00
43099;DHT22;28715;51.988;6.020;2022-07-17T00:07:53;15.60;88.00
43099;DHT22;28715;51.988;6.020;2022-07-17T00:10:18;15.60;88.40
43099;DHT22;28715;51.988;6.020;2022-07-17T00:12:44;15.60;88.60
43099;DHT22;28715;51.988;6.020;2022-07-17T00:15:10;15.60;88.50
43099;DHT22;28715;51.988;6.020;2022-07-17T00:17:35;15.60;88.50
43099;DHT22;28715;51.988;6.020;2022-07-17T00:20:01;15.50;88.60
43099;DHT22;28715;51.988;6.020;2022-07-17T00:22:26;15.50;88.80
43099;DHT22;28715;51.988;6.020;2022-07-17T00:24:53;15.60;89.00
43099;DHT22;28715;51.988;6.020;2022-07-17T00:27:18;15.50;89.00
43099;DHT22;28715;51.988;6.020;2022-07-17T00:29:44;15.50;89.90
43099;DHT22;28715;51.988;6.020;2022-07-17T00:32:09;15.50;89.30
43099;DHT22;28715;51.988;6.020;2022-07-17T00:34:35;15.40;89.70
43099;DHT22;28715;51.988;6.020;2022-07-17T00:37:00;15.40;89.90
43099;DHT22;28715;51.988;6.020;2022-07-17T00:39:26;15.30;90.00
43099;DHT22;28715;51.988;6.020;2022-07-17T00:41:51;15.30;90.00
43099;DHT22;28715;51.988;6.020;2022-07-17T00:44:17;15.30;90.10
43099;DHT22;28715;51.988;6.020;2022-07-17T00:46:42;15.30;90.10
43099;DHT22;28715;51.988;6.020;2022-07-17T00:49:08;15.20;90.20
43099;DHT22;28715;51.988;6.020;2022-07-17T00:51:35;15.20;90.20
43099;DHT22;28715;51.988;6.020;2022-07-17T00:54:01;15.10;90.20
43099;DHT22;28715;51.988;6.020;2022-07-17T00:56:28;15.10;90.20
43099;DHT22;28715;51.988;6.020;2022-07-17T00:58:53;15.10;90.20
43099;DHT22;28715;51.988;6.020;2022-07-17T01:01:20;15.00;90.20
43099;DHT22;28715;51.988;6.020;2022-07-17T01:03:46;15.00;90.30
43099;DHT22;28715;51.988;6.020;2022-07-17T01:06:12;14.90;90.30
43099;DHT22;28715;51.988;6.020;2022-07-17T01:08:38;14.90;90.40
43099;DHT22;28715;51.988;6.020;2022-07-17T01:11:04;14.90;90.50
43099;DHT22;28715;51.988;6.020;2022-07-17T01:13:31;14.90;90.60
43099;DHT22;28715;51.988;6.020;2022-07-17T01:15:57;14.80;90.80
43099;DHT22;28715;51.988;6.020;2022-07-17T01:18:23;14.80;91.00
43099;DHT22;28715;51.988;6.020;2022-07-17T01:20:49;14.80;91.10
43099;DHT22;28715;51.988;6.020;2022-07-17T01:23:16;14.80;91.30
43099;DHT22;28715;51.988;6.020;2022-07-17T01:25:42;14.70;91.40
43099;DHT22;28715;51.988;6.020;2022-07-17T01:28:08;14.70;91.40
43099;DHT22;28715;51.988;6.020;2022-07-17T01:30:35;14.70;91.50
43099;DHT22;28715;51.988;6.020;2022-07-17T01:33:00;14.60;91.50
43099;DHT22;28715;51.988;6.020;2022-07-17T01:35:26;14.60;91.60
43099;DHT22;28715;51.988;6.020;2022-07-17T01:37:51;14.60;91.60
43099;DHT22;28715;51.988;6.020;2022-07-17T01:40:18;14.50;91.70
43099;DHT22;28715;51.988;6.020;2022-07-17T01:42:46;14.50;91.80
43099;DHT22;28715;51.988;6.020;2022-07-17T01:45:13;14.50;92.00
43099;DHT22;28715;51.988;6.020;2022-07-17T01:47:40;14.50;92.10
43099;DHT22;28715;51.988;6.020;2022-07-17T01:50:06;14.50;92.20
43099;DHT22;28715;51.988;6.020;2022-07-17T01:52:35;14.40;92.30
43099;DHT22;28715;51.988;6.020;2022-07-17T01:55:03;14.40;92.40
43099;DHT22;28715;51.988;6.020;2022-07-17T01:57:28;14.40;92.50
43099;DHT22;28715;51.988;6.020;2022-07-17T01:59:54;14.30;92.50
43099;DHT22;28715;51.988;6.020;2022-07-17T02:02:19;14.30;92.60
43099;DHT22;28715;51.988;6.020;2022-07-17T02:04:45;14.30;92.60
43099;DHT22;28715;51.988;6.020;2022-07-17T02:07:11;14.30;92.60
43099;DHT22;28715;51.988;6.020;2022-07-17T02:09:37;14.20;92.60
43099;DHT22;28715;51.988;6.020;2022-07-17T02:12:03;14.20;92.60
43099;DHT22;28715;51.988;6.020;2022-07-17T02:14:30;14.20;92.70
43099;DHT22;28715;51.988;6.020;2022-07-17T02:16:55;14.20;92.90
43099;DHT22;28715;51.988;6.020;2022-07-17T02:19:21;14.20;92.90
43099;DHT22;28715;51.988;6.020;2022-07-17T02:21:46;14.20;93.00
43099;DHT22;28715;51.988;6.020;2022-07-17T02:24:12;14.20;93.00
43099;DHT22;28715;51.988;6.020;2022-07-17T02:26:38;14.10;93.10
43099;DHT22;28715;51.988;6.020;2022-07-17T02:29:03;14.10;93.10
43099;DHT22;28715;51.988;6.020;2022-07-17T02:31:29;14.00;93.30
43099;DHT22;28715;51.988;6.020;2022-07-17T02:33:54;14.00;93.50
43099;DHT22;28715;51.988;6.020;2022-07-17T02:36:20;14.00;93.50
43099;DHT22;28715;51.988;6.020;2022-07-17T02:38:45;14.00;93.50
43099;DHT22;28715;51.988;6.020;2022-07-17T02:41:11;14.00;93.60
43099;DHT22;28715;51.988;6.020;2022-07-17T02:43:38;14.00;93.70
43099;DHT22;28715;51.988;6.020;2022-07-17T02:46:03;14.00;93.80
43099;DHT22;28715;51.988;6.020;2022-07-17T02:48:29;14.00;93.90
43099;DHT22;28715;51.988;6.020;2022-07-17T02:50:55;13.90;94.00
43099;DHT22;28715;51.988;6.020;2022-07-17T02:53:20;13.90;94.10
43099;DHT22;28715;51.988;6.020;2022-07-17T02:55:46;13.90;94.20
43099;DHT22;28715;51.988;6.020;2022-07-17T02:58:11;13.90;94.10
43099;DHT22;28715;51.988;6.020;2022-07-17T03:00:37;13.90;94.00
43099;DHT22;28715;51.988;6.020;2022-07-17T03:03:03;13.90;94.00
43099;DHT22;28715;51.988;6.020;2022-07-17T03:05:28;13.90;94.10
43099;DHT22;28715;51.988;6.020;2022-07-17T03:07:54;13.90;94.10
43099;DHT22;28715;51.988;6.020;2022-07-17T03:10:20;13.90;94.20
43099;DHT22;28715;51.988;6.020;2022-07-17T03:12:45;13.90;94.40
43099;DHT22;28715;51.988;6.020;2022-07-17T03:15:11;13.90;94.60
43099;DHT22;28715;51.988;6.020;2022-07-17T03:17:40;13.80;94.50
43099;DHT22;28715;51.988;6.020;2022-07-17T03:20:06;13.80;94.40
43099;DHT22;28715;51.988;6.020;2022-07-17T03:22:32;13.80;94.40
43099;DHT22;28715;51.988;6.020;2022-07-17T03:24:58;13.80;94.50
43099;DHT22;28715;51.988;6.020;2022-07-17T03:27:23;13.80;94.50
43099;DHT22;28715;51.988;6.020;2022-07-17T03:29:49;13.70;94.40
43099;DHT22;28715;51.988;6.020;2022-07-17T03:32:15;13.70;94.50
43099;DHT22;28715;51.988;6.020;2022-07-17T03:34:40;13.70;94.70
43099;DHT22;28715;51.988;6.020;2022-07-17T03:37:06;13.70;94.60
43099;DHT22;28715;51.988;6.020;2022-07-17T03:39:32;13.70;94.60
43099;DHT22;28715;51.988;6.020;2022-07-17T03:41:57;13.70;94.60
43099;DHT22;28715;51.988;6.020;2022-07-17T03:44:23;13.70;94.70
43099;DHT22;28715;51.988;6.020;2022-07-17T03:46:49;13.70;94.70
43099;DHT22;28715;51.988;6.020;2022-07-17T03:49:14;13.70;94.70
43099;DHT22;28715;51.988;6.020;2022-07-17T03:51:40;13.60;94.90
43099;DHT22;28715;51.988;6.020;2022-07-17T03:54:06;13.60;95.10
43099;DHT22;28715;51.988;6.020;2022-07-17T03:56:31;13.70;95.30
43099;DHT22;28715;51.988;6.020;2022-07-17T03:58:57;13.70;95.30
43099;DHT22;28715;51.988;6.020;2022-07-17T04:01:22;13.70;95.30
43099;DHT22;28715;51.988;6.020;2022-07-17T04:03:48;13.70;95.50
43099;DHT22;28715;51.988;6.020;2022-07-17T04:06:14;13.70;95.10
43099;DHT22;28715;51.988;6.020;2022-07-17T04:08:39;13.80;95.10
43099;DHT22;28715;51.988;6.020;2022-07-17T04:11:05;13.80;95.00
43099;DHT22;28715;51.988;6.020;2022-07-17T04:13:30;13.80;95.00
43099;DHT22;28715;51.988;6.020;2022-07-17T04:15:56;13.70;95.10
43099;DHT22;28715;51.988;6.020;2022-07-17T04:18:24;13.70;95.30
43099;DHT22;28715;51.988;6.020;2022-07-17T04:20:51;13.70;95.30
43099;DHT22;28715;51.988;6.020;2022-07-17T04:23:17;13.70;95.40
43099;DHT22;28715;51.988;6.020;2022-07-17T04:25:43;13.70;95.40
43099;DHT22;28715;51.988;6.020;2022-07-17T04:28:09;13.70;95.30
43099;DHT22;28715;51.988;6.020;2022-07-17T04:30:36;13.70;95.40
43099;DHT22;28715;51.988;6.020;2022-07-17T04:33:02;13.70;95.50
43099;DHT22;28715;51.988;6.020;2022-07-17T04:35:28;13.70;95.50
43099;DHT22;28715;51.988;6.020;2022-07-17T04:37:53;13.80;95.50
43099;DHT22;28715;51.988;6.020;2022-07-17T04:40:19;13.80;95.60
43099;DHT22;28715;51.988;6.020;2022-07-17T04:42:45;13.80;95.80
43099;DHT22;28715;51.988;6.020;2022-07-17T04:45:11;13.90;95.90
43099;DHT22;28715;51.988;6.020;2022-07-17T04:47:38;13.90;95.70
43099;DHT22;28715;51.988;6.020;2022-07-17T04:50:04;13.90;95.70
43099;DHT22;28715;51.988;6.020;2022-07-17T04:52:30;14.00;95.80
43099;DHT22;28715;51.988;6.020;2022-07-17T04:54:56;14.00;95.90
43099;DHT22;28715;51.988;6.020;2022-07-17T04:57:21;14.10;95.90
43099;DHT22;28715;51.988;6.020;2022-07-17T04:59:47;14.20;95.80
43099;DHT22;28715;51.988;6.020;2022-07-17T05:02:12;14.20;95.80
43099;DHT22;28715;51.988;6.020;2022-07-17T05:04:38;14.30;95.80
43099;DHT22;28715;51.988;6.020;2022-07-17T05:07:04;14.40;95.70
43099;DHT22;28715;51.988;6.020;2022-07-17T05:09:29;14.50;95.70
43099;DHT22;28715;51.988;6.020;2022-07-17T05:11:55;14.60;95.60
43099;DHT22;28715;51.988;6.020;2022-07-17T05:14:20;14.70;95.60
43099;DHT22;28715;51.988;6.020;2022-07-17T05:16:46;14.70;95.50
43099;DHT22;28715;51.988;6.020;2022-07-17T05:19:11;14.80;95.30
43099;DHT22;28715;51.988;6.020;2022-07-17T05:21:37;14.80;95.60
43099;DHT22;28715;51.988;6.020;2022-07-17T05:24:02;14.90;95.40
43099;DHT22;28715;51.988;6.020;2022-07-17T05:26:28;14.90;95.30
43099;DHT22;28715;51.988;6.020;2022-07-17T05:28:54;15.00;95.30
43099;DHT22;28715;51.988;6.020;2022-07-17T05:31:19;15.00;95.40
43099;DHT22;28715;51.988;6.020;2022-07-17T05:33:45;15.10;95.40
43099;DHT22;28715;51.988;6.020;2022-07-17T05:36:10;15.20;95.30
43099;DHT22;28715;51.988;6.020;2022-07-17T05:38:37;15.30;95.10
43099;DHT22;28715;51.988;6.020;2022-07-17T05:41:03;15.50;95.00
43099;DHT22;28715;51.988;6.020;2022-07-17T05:43:29;15.70;95.00
43099;DHT22;28715;51.988;6.020;2022-07-17T05:45:56;15.90;94.90
43099;DHT22;28715;51.988;6.020;2022-07-17T05:48:23;16.30;94.60
43099;DHT22;28715;51.988;6.020;2022-07-17T05:50:49;16.50;94.00
43099;DHT22;28715;51.988;6.020;2022-07-17T05:53:15;16.60;93.70
43099;DHT22;28715;51.988;6.020;2022-07-17T05:55:41;16.70;92.90
43099;DHT22;28715;51.988;6.020;2022-07-17T05:58:06;16.70;92.90
43099;DHT22;28715;51.988;6.020;2022-07-17T06:00:32;16.80;92.50
43099;DHT22;28715;51.988;6.020;2022-07-17T06:02:58;16.80;92.60
43099;DHT22;28715;51.988;6.020;2022-07-17T06:05:24;16.90;92.50
43099;DHT22;28715;51.988;6.020;2022-07-17T06:07:51;16.80;92.50
43099;DHT22;28715;51.988;6.020;2022-07-17T06:10:17;16.90;92.60
43099;DHT22;28715;51.988;6.020;2022-07-17T06:12:42;17.00;92.60
43099;DHT22;28715;51.988;6.020;2022-07-17T06:15:08;17.00;92.50
43099;DHT22;28715;51.988;6.020;2022-07-17T06:17:34;17.20;92.40
43099;DHT22;28715;51.988;6.020;2022-07-17T06:20:00;17.30;92.20
43099;DHT22;28715;51.988;6.020;2022-07-17T06:22:25;17.40;92.00
43099;DHT22;28715;51.988;6.020;2022-07-17T06:24:51;17.40;91.90
43099;DHT22;28715;51.988;6.020;2022-07-17T06:27:16;17.40;92.00
43099;DHT22;28715;51.988;6.020;2022-07-17T06:29:42;17.40;92.10
43099;DHT22;28715;51.988;6.020;2022-07-17T06:32:07;17.60;92.20
43099;DHT22;28715;51.988;6.020;2022-07-17T06:34:33;17.60;92.10
43099;DHT22;28715;51.988;6.020;2022-07-17T06:36:58;17.70;91.90
43099;DHT22;28715;51.988;6.020;2022-07-17T06:39:24;17.70;91.80
43099;DHT22;28715;51.988;6.020;2022-07-17T06:41:49;17.80;91.80
43099;DHT22;28715;51.988;6.020;2022-07-17T06:44:15;17.90;91.40
43099;DHT22;28715;51.988;6.020;2022-07-17T06:46:40;18.00;90.90
43099;DHT22;28715;51.988;6.020;2022-07-17T06:49:06;18.20;90.60
43099;DHT22;28715;51.988;6.020;2022-07-17T06:51:32;18.30;90.70
43099;DHT22;28715;51.988;6.020;2022-07-17T06:53:58;18.40;90.10
43099;DHT22;28715;51.988;6.020;2022-07-17T06:56:23;18.50;90.00
43099;DHT22;28715;51.988;6.020;2022-07-17T06:58:49;18.70;89.40
43099;DHT22;28715;51.988;6.020;2022-07-17T07:01:14;19.10;89.20
43099;DHT22;28715;51.988;6.020;2022-07-17T07:03:40;19.60;87.30
43099;DHT22;28715;51.988;6.020;2022-07-17T07:06:06;20.10;86.00
43099;DHT22;28715;51.988;6.020;2022-07-17T07:08:33;20.50;84.00
43099;DHT22;28715;51.988;6.020;2022-07-17T07:11:00;21.10;84.00
43099;DHT22;28715;51.988;6.020;2022-07-17T07:13:26;21.40;80.60
43099;DHT22;28715;51.988;6.020;2022-07-17T07:15:51;21.80;78.10
43099;DHT22;28715;51.988;6.020;2022-07-17T07:18:17;22.10;77.50
43099;DHT22;28715;51.988;6.020;2022-07-17T07:20:43;22.30;77.10
43099;DHT22;28715;51.988;6.020;2022-07-17T07:23:09;22.60;77.50
43099;DHT22;28715;51.988;6.020;2022-07-17T07:25:35;23.00;76.30
43099;DHT22;28715;51.988;6.020;2022-07-17T07:28:01;23.40;75.70
43099;DHT22;28715;51.988;6.020;2022-07-17T07:30:26;23.80;74.00
43099;DHT22;28715;51.988;6.020;2022-07-17T07:32:52;24.10;73.30
43099;DHT22;28715;51.988;6.020;2022-07-17T07:35:17;24.40;71.10
43099;DHT22;28715;51.988;6.020;2022-07-17T07:37:43;24.60;70.10
43099;DHT22;28715;51.988;6.020;2022-07-17T07:40:09;24.70;69.40
43099;DHT22;28715;51.988;6.020;2022-07-17T07:42:35;24.90;68.00
43099;DHT22;28715;51.988;6.020;2022-07-17T07:45:00;25.00;65.80
43099;DHT22;28715;51.988;6.020;2022-07-17T07:47:26;25.20;64.70
43099;DHT22;28715;51.988;6.020;2022-07-17T07:49:52;25.30;65.60
43099;DHT22;28715;51.988;6.020;2022-07-17T07:52:17;25.40;64.30
43099;DHT22;28715;51.988;6.020;2022-07-17T07:54:43;25.30;63.60
43099;DHT22;28715;51.988;6.020;2022-07-17T07:57:08;25.20;65.20
43099;DHT22;28715;51.988;6.020;2022-07-17T07:59:34;25.20;65.60
43099;DHT22;28715;51.988;6.020;2022-07-17T08:02:00;25.40;64.60
43099;DHT22;28715;51.988;6.020;2022-07-17T08:04:26;25.60;64.20
43099;DHT22;28715;51.988;6.020;2022-07-17T08:06:52;25.60;63.30
43099;DHT22;28715;51.988;6.020;2022-07-17T08:09:17;25.70;62.60
43099;DHT22;28715;51.988;6.020;2022-07-17T08:11:43;25.80;62.60
43099;DHT22;28715;51.988;6.020;2022-07-17T08:14:09;26.00;62.60
43099;DHT22;28715;51.988;6.020;2022-07-17T08:16:34;26.10;62.70
43099;DHT22;28715;51.988;6.020;2022-07-17T08:19:00;26.30;62.40
43099;DHT22;28715;51.988;6.020;2022-07-17T08:21:26;26.40;62.60
43099;DHT22;28715;51.988;6.020;2022-07-17T08:23:52;26.50;61.80
43099;DHT22;28715;51.988;6.020;2022-07-17T08:26:17;26.40;60.10
43099;DHT22;28715;51.988;6.020;2022-07-17T08:28:43;26.30;61.20
43099;DHT22;28715;51.988;6.020;2022-07-17T08:31:09;26.50;61.20
43099;DHT22;28715;51.988;6.020;2022-07-17T08:33:35;26.50;60.90
43099;DHT22;28715;51.988;6.020;2022-07-17T08:36:00;26.70;61.50
43099;DHT22;28715;51.988;6.020;2022-07-17T08:38:26;26.90;61.30
43099;DHT22;28715;51.988;6.020;2022-07-17T08:40:52;27.00;60.40
43099;DHT22;28715;51.988;6.020;2022-07-17T08:43:19;26.90;59.50
43099;DHT22;28715;51.988;6.020;2022-07-17T08:45:45;26.70;59.50
43099;DHT22;28715;51.988;6.020;2022-07-17T08:48:16;26.50;59.70
43099;DHT22;28715;51.988;6.020;2022-07-17T08:50:42;26.60;61.50
43099;DHT22;28715;51.988;6.020;2022-07-17T08:53:08;26.70;58.30
43099;DHT22;28715;51.988;6.020;2022-07-17T08:55:34;26.80;59.10
43099;DHT22;28715;51.988;6.020;2022-07-17T08:58:00;27.00;58.80
43099;DHT22;28715;51.988;6.020;2022-07-17T09:00:26;27.20;58.60
43099;DHT22;28715;51.988;6.020;2022-07-17T09:03:03;27.50;57.80
43099;DHT22;28715;51.988;6.020;2022-07-17T09:05:31;27.60;57.70
43099;DHT22;28715;51.988;6.020;2022-07-17T09:07:57;27.50;57.40
43099;DHT22;28715;51.988;6.020;2022-07-17T09:10:53;27.40;58.50
43099;DHT22;28715;51.988;6.020;2022-07-17T09:13:21;27.30;58.30
43099;DHT22;28715;51.988;6.020;2022-07-17T09:15:49;27.40;59.40
43099;DHT22;28715;51.988;6.020;2022-07-17T09:18:15;27.30;57.60
43099;DHT22;28715;51.988;6.020;2022-07-17T09:20:49;27.30;58.00
43099;DHT22;28715;51.988;6.020;2022-07-17T09:23:16;27.50;58.20
43099;DHT22;28715;51.988;6.020;2022-07-17T09:25:43;27.50;56.90
43099;DHT22;28715;51.988;6.020;2022-07-17T09:28:11;27.50;57.50
43099;DHT22;28715;51.988;6.020;2022-07-17T09:30:40;27.50;58.10
43099;DHT22;28715;51.988;6.020;2022-07-17T09:33:11;27.60;57.40
43099;DHT22;28715;51.988;6.020;2022-07-17T09:35:45;27.50;58.20
43099;DHT22;28715;51.988;6.020;2022-07-17T09:38:11;27.60;58.30
43099;DHT22;28715;51.988;6.020;2022-07-17T09:40:37;27.80;57.70
43099;DHT22;28715;51.988;6.020;2022-07-17T09:43:21;28.00;57.70
43099;DHT22;28715;51.988;6.020;2022-07-17T09:45:47;28.20;56.10
43099;DHT22;28715;51.988;6.020;2022-07-17T09:48:14;28.40;56.40
43099;DHT22;28715;51.988;6.020;2022-07-17T09:50:40;28.30;56.10
43099;DHT22;28715;51.988;6.020;2022-07-17T09:53:07;28.30;56.60
43099;DHT22;28715;51.988;6.020;2022-07-17T09:55:33;28.20;57.00
43099;DHT22;28715;51.988;6.020;2022-07-17T09:58:01;28.20;56.40
43099;DHT22;28715;51.988;6.020;2022-07-17T10:00:27;28.10;54.50
43099;DHT22;28715;51.988;6.020;2022-07-17T10:02:53;28.00;56.60
43099;DHT22;28715;51.988;6.020;2022-07-17T10:05:19;27.80;55.70
43099;DHT22;28715;51.988;6.020;2022-07-17T10:07:46;27.80;56.40
43099;DHT22;28715;51.988;6.020;2022-07-17T10:10:13;27.70;56.90
43099;DHT22;28715;51.988;6.020;2022-07-17T10:12:42;27.70;55.20
43099;DHT22;28715;51.988;6.020;2022-07-17T10:15:08;27.60;56.50
43099;DHT22;28715;51.988;6.020;2022-07-17T10:17:34;27.50;57.40
43099;DHT22;28715;51.988;6.020;2022-07-17T10:20:00;27.50;57.90
43099;DHT22;28715;51.988;6.020;2022-07-17T10:22:43;27.60;57.80
43099;DHT22;28715;51.988;6.020;2022-07-17T10:25:14;27.60;58.10
43099;DHT22;28715;51.988;6.020;2022-07-17T10:27:52;27.70;58.30
43099;DHT22;28715;51.988;6.020;2022-07-17T10:30:26;27.50;56.90
43099;DHT22;28715;51.988;6.020;2022-07-17T10:32:54;27.40;59.00
43099;DHT22;28715;51.988;6.020;2022-07-17T10:35:20;27.30;57.10
43099;DHT22;28715;51.988;6.020;2022-07-17T10:37:46;27.30;57.90
43099;DHT22;28715;51.988;6.020;2022-07-17T10:40:23;27.20;56.20
43099;DHT22;28715;51.988;6.020;2022-07-17T10:43:00;27.10;58.20
43099;DHT22;28715;51.988;6.020;2022-07-17T10:45:32;27.10;57.90
43099;DHT22;28715;51.988;6.020;2022-07-17T10:48:06;27.20;58.60
43099;DHT22;28715;51.988;6.020;2022-07-17T10:50:56;27.20;59.00
43099;DHT22;28715;51.988;6.020;2022-07-17T10:53:30;27.20;57.20
43099;DHT22;28715;51.988;6.020;2022-07-17T10:55:57;27.30;56.10
43099;DHT22;28715;51.988;6.020;2022-07-17T11:01:19;27.30;58.10
43099;DHT22;28715;51.988;6.020;2022-07-17T11:03:51;27.20;58.70
43099;DHT22;28715;51.988;6.020;2022-07-17T11:06:37;27.40;58.10
43099;DHT22;28715;51.988;6.020;2022-07-17T11:09:08;27.40;56.20
43099;DHT22;28715;51.988;6.020;2022-07-17T11:11:48;27.30;56.20
43099;DHT22;28715;51.988;6.020;2022-07-17T11:14:16;27.20;56.10
43099;DHT22;28715;51.988;6.020;2022-07-17T11:16:48;27.20;57.50
43099;DHT22;28715;51.988;6.020;2022-07-17T11:19:40;27.40;56.60
43099;DHT22;28715;51.988;6.020;2022-07-17T11:22:11;27.50;59.20
43099;DHT22;28715;51.988;6.020;2022-07-17T11:24:41;27.40;55.80
43099;DHT22;28715;51.988;6.020;2022-07-17T11:27:10;27.40;56.20
43099;DHT22;28715;51.988;6.020;2022-07-17T11:29:37;27.50;55.60
43099;DHT22;28715;51.988;6.020;2022-07-17T11:32:03;27.70;55.30
43099;DHT22;28715;51.988;6.020;2022-07-17T11:34:29;27.80;54.60
43099;DHT22;28715;51.988;6.020;2022-07-17T11:36:59;28.00;54.10
43099;DHT22;28715;51.988;6.020;2022-07-17T11:39:25;27.90;53.30
43099;DHT22;28715;51.988;6.020;2022-07-17T11:41:52;27.90;53.60
43099;DHT22;28715;51.988;6.020;2022-07-17T11:44:20;27.70;54.50
43099;DHT22;28715;51.988;6.020;2022-07-17T11:46:48;27.60;54.70
43099;DHT22;28715;51.988;6.020;2022-07-17T11:49:24;27.80;54.10
43099;DHT22;28715;51.988;6.020;2022-07-17T11:51:55;27.80;53.90
43099;DHT22;28715;51.988;6.020;2022-07-17T11:54:21;27.90;54.60
43099;DHT22;28715;51.988;6.020;2022-07-17T11:56:55;28.00;54.00
43099;DHT22;28715;51.988;6.020;2022-07-17T11:59:26;28.00;54.00
43099;DHT22;28715;51.988;6.020;2022-07-17T12:01:53;28.10;53.60
43099;DHT22;28715;51.988;6.020;2022-07-17T12:04:18;28.20;56.30
43099;DHT22;28715;51.988;6.020;2022-07-17T12:06:46;28.30;51.90
43099;DHT22;28715;51.988;6.020;2022-07-17T12:09:12;28.30;52.10
43099;DHT22;28715;51.988;6.020;2022-07-17T12:11:49;28.40;53.30
43099;DHT22;28715;51.988;6.020;2022-07-17T12:14:15;28.50;53.00
43099;DHT22;28715;51.988;6.020;2022-07-17T12:16:41;28.60;54.40
43099;DHT22;28715;51.988;6.020;2022-07-17T12:19:09;28.60;52.20
43099;DHT22;28715;51.988;6.020;2022-07-17T12:24:25;28.80;51.70
43099;DHT22;28715;51.988;6.020;2022-07-17T12:26:53;28.70;52.80
43099;DHT22;28715;51.988;6.020;2022-07-17T12:29:19;28.80;52.10
43099;DHT22;28715;51.988;6.020;2022-07-17T12:31:44;28.70;50.90
43099;DHT22;28715;51.988;6.020;2022-07-17T12:34:10;28.50;50.20
43099;DHT22;28715;51.988;6.020;2022-07-17T12:36:36;28.40;50.70
43099;DHT22;28715;51.988;6.020;2022-07-17T12:39:02;28.40;49.40
43099;DHT22;28715;51.988;6.020;2022-07-17T12:41:27;28.30;49.70
43099;DHT22;28715;51.988;6.020;2022-07-17T12:43:53;28.20;50.40
43099;DHT22;28715;51.988;6.020;2022-07-17T12:46:19;28.20;51.40
43099;DHT22;28715;51.988;6.020;2022-07-17T12:48:44;28.30;51.10
43099;DHT22;28715;51.988;6.020;2022-07-17T12:51:11;28.40;52.60
43099;DHT22;28715;51.988;6.020;2022-07-17T12:53:41;28.40;50.40
43099;DHT22;28715;51.988;6.020;2022-07-17T12:56:08;28.40;51.30
43099;DHT22;28715;51.988;6.020;2022-07-17T12:58:35;28.50;50.30
43099;DHT22;28715;51.988;6.020;2022-07-17T13:01:01;28.50;50.10
43099;DHT22;28715;51.988;6.020;2022-07-17T13:03:27;28.50;49.10
43099;DHT22;28715;51.988;6.020;2022-07-17T13:05:52;28.40;49.20
43099;DHT22;28715;51.988;6.020;2022-07-17T13:08:18;28.40;50.60
43099;DHT22;28715;51.988;6.020;2022-07-17T13:10:44;28.40;50.60
43099;DHT22;28715;51.988;6.020;2022-07-17T13:13:10;28.60;51.00
43099;DHT22;28715;51.988;6.020;2022-07-17T13:15:35;28.70;49.70
43099;DHT22;28715;51.988;6.020;2022-07-17T13:18:01;28.70;50.50
43099;DHT22;28715;51.988;6.020;2022-07-17T13:20:28;28.70;50.70
43099;DHT22;28715;51.988;6.020;2022-07-17T13:22:53;28.80;51.80
43099;DHT22;28715;51.988;6.020;2022-07-17T13:25:19;28.80;51.30
43099;DHT22;28715;51.988;6.020;2022-07-17T13:27:44;28.80;50.20
43099;DHT22;28715;51.988;6.020;2022-07-17T13:30:11;28.70;50.70
43099;DHT22;28715;51.988;6.020;2022-07-17T13:32:37;28.80;53.20
43099;DHT22;28715;51.988;6.020;2022-07-17T13:35:03;28.90;52.70
43099;DHT22;28715;51.988;6.020;2022-07-17T13:37:29;29.00;52.70
43099;DHT22;28715;51.988;6.020;2022-07-17T13:39:55;29.10;50.70
43099;DHT22;28715;51.988;6.020;2022-07-17T13:42:20;29.20;51.40
43099;DHT22;28715;51.988;6.020;2022-07-17T13:44:46;29.10;51.80
43099;DHT22;28715;51.988;6.020;2022-07-17T13:47:11;29.10;50.40
43099;DHT22;28715;51.988;6.020;2022-07-17T13:49:37;29.10;52.30
43099;DHT22;28715;51.988;6.020;2022-07-17T13:52:03;29.20;50.60
43099;DHT22;28715;51.988;6.020;2022-07-17T13:54:28;29.10;50.00
43099;DHT22;28715;51.988;6.020;2022-07-17T13:56:54;29.20;51.30
43099;DHT22;28715;51.988;6.020;2022-07-17T13:59:20;29.20;50.00
43099;DHT22;28715;51.988;6.020;2022-07-17T14:01:45;29.20;50.70
43099;DHT22;28715;51.988;6.020;2022-07-17T14:04:11;29.20;51.40
43099;DHT22;28715;51.988;6.020;2022-07-17T14:06:36;29.30;51.80
43099;DHT22;28715;51.988;6.020;2022-07-17T14:09:02;29.30;49.80
43099;DHT22;28715;51.988;6.020;2022-07-17T14:11:28;29.20;50.00
43099;DHT22;28715;51.988;6.020;2022-07-17T14:13:54;29.20;48.70
43099;DHT22;28715;51.988;6.020;2022-07-17T14:16:19;29.10;51.00
43099;DHT22;28715;51.988;6.020;2022-07-17T14:18:45;29.10;51.70
43099;DHT22;28715;51.988;6.020;2022-07-17T14:21:28;29.10;50.70
43099;DHT22;28715;51.988;6.020;2022-07-17T14:23:54;29.10;50.20
43099;DHT22;28715;51.988;6.020;2022-07-17T14:26:19;29.20;50.80
43099;DHT22;28715;51.988;6.020;2022-07-17T14:28:45;29.30;51.50
43099;DHT22;28715;51.988;6.020;2022-07-17T14:31:11;29.30;50.90
43099;DHT22;28715;51.988;6.020;2022-07-17T14:33:36;29.40;51.40
43099;DHT22;28715;51.988;6.020;2022-07-17T14:36:02;29.50;51.10
43099;DHT22;28715;51.988;6.020;2022-07-17T14:38:28;29.50;49.30
43099;DHT22;28715;51.988;6.020;2022-07-17T14:40:53;29.50;50.00
43099;DHT22;28715;51.988;6.020;2022-07-17T14:43:19;29.50;50.30
43099;DHT22;28715;51.988;6.020;2022-07-17T14:45:45;29.50;50.10
43099;DHT22;28715;51.988;6.020;2022-07-17T14:48:10;29.30;49.70
43099;DHT22;28715;51.988;6.020;2022-07-17T14:50:36;29.30;50.40
43099;DHT22;28715;51.988;6.020;2022-07-17T14:53:01;29.20;49.30
43099;DHT22;28715;51.988;6.020;2022-07-17T14:55:27;29.20;48.60
43099;DHT22;28715;51.988;6.020;2022-07-17T14:57:53;29.10;49.40
43099;DHT22;28715;51.988;6.020;2022-07-17T15:00:19;29.10;49.50
43099;DHT22;28715;51.988;6.020;2022-07-17T15:02:44;29.10;50.30
43099;DHT22;28715;51.988;6.020;2022-07-17T15:05:10;29.10;49.90
43099;DHT22;28715;51.988;6.020;2022-07-17T15:07:36;29.20;49.40
43099;DHT22;28715;51.988;6.020;2022-07-17T15:10:01;29.20;49.20
43099;DHT22;28715;51.988;6.020;2022-07-17T15:12:27;29.00;50.10
43099;DHT22;28715;51.988;6.020;2022-07-17T15:14:52;28.90;49.50
43099;DHT22;28715;51.988;6.020;2022-07-17T15:17:18;28.80;50.10
43099;DHT22;28715;51.988;6.020;2022-07-17T15:19:44;28.80;49.60
43099;DHT22;28715;51.988;6.020;2022-07-17T15:22:10;28.70;49.60
43099;DHT22;28715;51.988;6.020;2022-07-17T15:24:35;28.70;48.90
43099;DHT22;28715;51.988;6.020;2022-07-17T15:27:01;28.70;50.20
43099;DHT22;28715;51.988;6.020;2022-07-17T15:29:26;28.70;48.80
43099;DHT22;28715;51.988;6.020;2022-07-17T15:31:52;28.80;49.20